createdAt,value
2022-08-19T00:01:59.480Z,42.24
2022-08-19T00:04:35.997Z,42.42
2022-08-19T00:07:07.448Z,42.66
2022-08-19T00:09:35.785Z,42.72
2022-08-19T00:12:03.785Z,42.75
2022-08-19T00:14:39.547Z,42.74
2022-08-19T00:17:13.801Z,43.06
2022-08-19T00:19:41.778Z,42.83
2022-08-19T00:22:09.786Z,42.93
2022-08-19T00:24:38.963Z,43.12
2022-08-19T00:27:25.709Z,43.08
2022-08-19T00:29:54.467Z,43.16
2022-08-19T00:32:22.051Z,43.17
2022-08-19T00:34:49.626Z,43.23
2022-08-19T00:37:17.181Z,43.36
2022-08-19T00:39:44.788Z,43.53
2022-08-19T00:42:15.812Z,43.40
2022-08-19T00:44:44.239Z,43.55
2022-08-19T00:47:14.105Z,43.62
2022-08-19T00:49:48.713Z,43.70
2022-08-19T00:52:21.238Z,43.93
2022-08-19T00:54:52.603Z,43.55
2022-08-19T00:57:27.745Z,43.94
2022-08-19T01:00:02.370Z,43.83
2022-08-19T01:02:33.980Z,43.85
2022-08-19T01:05:05.593Z,43.86
2022-08-19T01:07:38.252Z,43.89
2022-08-19T01:10:13.692Z,44.23
2022-08-19T01:12:42.247Z,44.29
2022-08-19T01:15:13.617Z,44.29
2022-08-19T01:17:42.932Z,44.30
2022-08-19T01:20:13.682Z,44.58
2022-08-19T01:22:48.544Z,44.92
2022-08-19T01:25:18.302Z,44.94
2022-08-19T01:27:49.775Z,45.05
2022-08-19T01:30:26.415Z,45.34
2022-08-19T01:32:55.203Z,45.18
2022-08-19T01:35:26.775Z,45.06
2022-08-19T01:38:08.471Z,45.50
2022-08-19T01:40:40.543Z,45.48
2022-08-19T01:43:08.871Z,45.08
2022-08-19T01:45:41.326Z,45.06
2022-08-19T01:48:12.313Z,45.15
2022-08-19T01:50:40.187Z,45.14
2022-08-19T01:53:10.879Z,45.25
2022-08-19T01:55:41.940Z,45.37
2022-08-19T01:58:15.017Z,45.57
2022-08-19T02:00:43.598Z,45.30
2022-08-19T02:03:12.479Z,45.52
2022-08-19T02:05:44.148Z,45.94
2022-08-19T02:08:12.019Z,45.58
2022-08-19T02:10:46.179Z,45.91
2022-08-19T02:13:26.467Z,45.83
2022-08-19T02:16:14.086Z,45.56
2022-08-19T02:18:41.570Z,45.69
2022-08-19T02:21:09.205Z,45.88
2022-08-19T02:23:39.960Z,45.97
2022-08-19T02:26:07.552Z,46.00
2022-08-19T02:28:35.915Z,45.89
2022-08-19T02:31:04.528Z,46.08
2022-08-19T02:33:32.092Z,46.50
2022-08-19T02:35:59.683Z,46.06
2022-08-19T02:38:27.222Z,46.11
2022-08-19T02:41:06.838Z,46.30
2022-08-19T02:43:37.463Z,46.28
2022-08-19T02:46:14.506Z,46.27
2022-08-19T02:48:42.475Z,45.90
2022-08-19T02:51:09.975Z,46.15
2022-08-19T02:53:38.332Z,46.20
2022-08-19T02:56:08.892Z,46.29
2022-08-19T02:58:36.365Z,46.14
2022-08-19T03:01:04.050Z,46.24
2022-08-19T03:03:32.986Z,46.09
2022-08-19T03:06:07.585Z,46.46
2022-08-19T03:08:37.903Z,46.13
2022-08-19T03:11:05.619Z,46.28
2022-08-19T03:13:33.906Z,46.59
2022-08-19T03:16:06.614Z,46.81
2022-08-19T03:18:36.716Z,46.35
2022-08-19T03:21:06.714Z,46.36
2022-08-19T03:23:37.584Z,46.66
2022-08-19T03:26:16.619Z,46.75
2022-08-19T03:28:57.823Z,46.79
2022-08-19T03:31:43.282Z,46.81
2022-08-19T03:34:18.913Z,46.47
2022-08-19T03:36:48.121Z,46.59
2022-08-19T03:39:16.634Z,46.51
2022-08-19T03:41:48.187Z,46.55
2022-08-19T03:44:21.861Z,46.68
2022-08-19T03:46:56.229Z,46.84
2022-08-19T03:49:27.157Z,46.92
2022-08-19T03:51:58.539Z,46.89
2022-08-19T03:54:29.391Z,46.74
2022-08-19T03:56:58.358Z,46.68
2022-08-19T03:59:29.619Z,46.58
2022-08-19T04:01:59.600Z,46.30
2022-08-19T04:04:29.334Z,46.34
2022-08-19T04:06:57.844Z,46.08
2022-08-19T04:09:25.850Z,45.92
2022-08-19T04:11:58.110Z,46.26
2022-08-19T04:14:31.364Z,46.26
2022-08-19T04:17:02.175Z,45.98
2022-08-19T04:19:31.554Z,45.74
2022-08-19T04:21:59.670Z,45.93
2022-08-19T04:24:27.249Z,45.74
2022-08-19T04:26:55.205Z,45.56
2022-08-19T04:29:26.122Z,45.72
2022-08-19T04:31:56.649Z,45.41
2022-08-19T04:34:29.396Z,45.20
2022-08-19T04:36:59.379Z,45.12
2022-08-19T04:39:48.922Z,45.15
2022-08-19T04:42:37.047Z,44.75
2022-08-19T04:45:09.396Z,44.38
2022-08-19T04:47:47.891Z,44.31
2022-08-19T04:50:27.398Z,44.03
2022-08-19T04:52:57.432Z,44.22
2022-08-19T04:55:26.805Z,44.15
2022-08-19T04:57:57.537Z,43.70
2022-08-19T05:00:25.199Z,43.18
2022-08-19T05:02:52.865Z,43.31
2022-08-19T05:05:20.899Z,43.11
2022-08-19T05:07:49.063Z,43.27
2022-08-19T05:10:20.207Z,43.59
2022-08-19T05:12:50.323Z,43.28
2022-08-19T05:15:17.908Z,43.17
2022-08-19T05:18:08.148Z,43.13
2022-08-19T05:21:00.476Z,43.14
2022-08-19T05:23:28.043Z,42.83
2022-08-19T05:25:55.536Z,42.71
2022-08-19T05:28:23.065Z,42.15
2022-08-19T05:30:51.985Z,42.46
2022-08-19T05:33:22.895Z,42.55
2022-08-19T05:35:50.533Z,42.23
2022-08-19T05:38:18.833Z,41.92
2022-08-19T05:40:48.106Z,42.03
2022-08-19T05:43:21.897Z,42.20
2022-08-19T05:45:52.550Z,42.01
2022-08-19T05:48:21.603Z,42.04
2022-08-19T05:50:52.069Z,42.09
2022-08-19T05:53:19.954Z,41.95
2022-08-19T05:55:47.464Z,41.89
2022-08-19T05:58:15.026Z,42.06
2022-08-19T06:00:45.053Z,41.84
2022-08-19T06:03:13.362Z,41.75
2022-08-19T06:05:51.565Z,41.81
2022-08-19T06:08:33.731Z,41.41
2022-08-19T06:11:23.455Z,41.21
2022-08-19T06:13:57.272Z,41.00
2022-08-19T06:16:29.337Z,40.83
2022-08-19T06:18:58.110Z,40.45
2022-08-19T06:21:28.646Z,40.42
2022-08-19T06:23:57.487Z,39.94
2022-08-19T06:26:26.014Z,39.45
2022-08-19T06:28:53.570Z,39.62
2022-08-19T06:31:24.953Z,39.64
2022-08-19T06:33:53.097Z,39.73
2022-08-19T06:36:47.646Z,39.78
2022-08-19T06:39:18.390Z,39.69
2022-08-19T06:41:52.545Z,39.62
2022-08-19T06:44:25.824Z,39.65
2022-08-19T06:46:55.177Z,40.13
2022-08-19T06:49:24.083Z,40.29
2022-08-19T06:51:52.151Z,40.29
2022-08-19T06:54:30.733Z,39.86
2022-08-19T06:57:03.050Z,40.16
2022-08-19T06:59:33.661Z,40.27
2022-08-19T07:02:07.663Z,39.87
2022-08-19T07:04:37.046Z,39.52
2022-08-19T07:07:20.104Z,40.00
2022-08-19T07:09:51.868Z,39.50
2022-08-19T07:12:35.707Z,39.27
2022-08-19T07:15:07.441Z,38.99
2022-08-19T07:17:39.060Z,38.46
2022-08-19T07:20:09.495Z,38.35
2022-08-19T07:22:40.240Z,37.49
2022-08-19T07:25:09.560Z,37.30
2022-08-19T07:27:39.684Z,36.33
2022-08-19T07:30:14.756Z,34.61
2022-08-19T07:32:43.476Z,34.02
2022-08-19T07:35:11.374Z,33.33
2022-08-19T07:37:40.285Z,33.11
2022-08-19T07:40:12.234Z,32.24
2022-08-19T07:42:40.059Z,31.38
2022-08-19T07:45:09.050Z,30.68
2022-08-19T07:47:50.091Z,30.67
2022-08-19T07:50:24.501Z,29.93
2022-08-19T07:52:52.884Z,30.01
2022-08-19T07:55:41.420Z,29.97
2022-08-19T07:58:14.612Z,29.92
2022-08-19T08:00:43.876Z,29.94
2022-08-19T08:03:12.213Z,29.26
2022-08-19T08:05:58.049Z,29.10
2022-08-19T08:08:48.674Z,28.46
2022-08-19T08:11:20.715Z,27.98
2022-08-19T08:14:00.942Z,27.75
2022-08-19T08:16:39.714Z,27.40
2022-08-19T08:19:25.753Z,27.68
2022-08-19T08:21:58.235Z,27.29
2022-08-19T08:24:31.831Z,27.47
2022-08-19T08:27:01.295Z,26.99
2022-08-19T08:29:35.068Z,26.71
2022-08-19T08:32:03.726Z,26.54
2022-08-19T08:34:42.551Z,27.00
2022-08-19T08:37:12.900Z,27.43
2022-08-19T08:39:43.798Z,28.23
2022-08-19T08:42:18.591Z,28.17
2022-08-19T08:44:59.295Z,28.36
2022-08-19T08:47:33.769Z,29.37
2022-08-19T08:50:15.669Z,29.75
2022-08-19T08:52:48.639Z,29.92
2022-08-19T08:55:20.603Z,29.62
2022-08-19T08:57:50.155Z,29.27
2022-08-19T09:00:25.144Z,27.77
2022-08-19T09:02:52.743Z,26.92
2022-08-19T09:05:26.038Z,25.67
2022-08-19T09:08:04.899Z,25.45
2022-08-19T09:10:35.394Z,25.60
2022-08-19T09:13:30.229Z,25.06
2022-08-19T09:16:10.142Z,24.63
2022-08-19T09:18:40.619Z,23.88
2022-08-19T09:21:09.875Z,23.36
2022-08-19T09:23:38.441Z,23.26
2022-08-19T09:26:16.978Z,23.34
2022-08-19T09:28:48.672Z,23.38
2022-08-19T09:31:19.790Z,23.17
2022-08-19T09:33:48.249Z,22.79
2022-08-19T09:36:21.762Z,22.54
2022-08-19T09:39:02.958Z,22.27
2022-08-19T09:41:30.748Z,21.69
2022-08-19T09:43:59.836Z,21.12
2022-08-19T09:46:29.488Z,20.84
2022-08-19T09:49:06.377Z,20.56
2022-08-19T09:51:35.106Z,20.38
2022-08-19T09:54:05.188Z,19.36
2022-08-19T09:56:34.103Z,18.82
2022-08-19T09:59:04.646Z,17.94
2022-08-19T10:01:33.578Z,17.94
2022-08-19T10:04:07.532Z,17.11
2022-08-19T10:06:46.799Z,17.42
2022-08-19T10:09:17.951Z,16.33
2022-08-19T10:12:03.680Z,15.98
2022-08-19T10:14:32.305Z,16.33
2022-08-19T10:17:01.393Z,16.00
2022-08-19T10:19:55.248Z,15.72
2022-08-19T10:22:25.752Z,14.96
2022-08-19T10:24:54.443Z,13.74
2022-08-19T10:27:22.580Z,13.56
2022-08-19T10:29:50.143Z,13.79
2022-08-19T10:32:17.729Z,13.03
2022-08-19T10:34:48.857Z,12.82
2022-08-19T10:37:23.625Z,12.78
2022-08-19T10:39:52.409Z,12.76
2022-08-19T10:42:20.286Z,12.74
2022-08-19T10:44:47.920Z,12.60
2022-08-19T10:47:24.459Z,12.52
2022-08-19T10:50:14.205Z,12.27
2022-08-19T10:52:49.073Z,11.81
2022-08-19T10:55:40.538Z,11.94
2022-08-19T10:58:24.184Z,11.79
2022-08-19T11:00:58.395Z,12.74
2022-08-19T11:03:29.017Z,12.73
2022-08-19T11:06:05.464Z,12.83
2022-08-19T11:08:35.188Z,12.26
2022-08-19T11:11:04.802Z,13.04
2022-08-19T11:13:38.353Z,13.19
2022-08-19T11:16:11.899Z,12.81
2022-08-19T11:18:43.881Z,12.80
2022-08-19T11:21:18.103Z,12.31
2022-08-19T11:23:47.893Z,12.27
2022-08-19T11:26:16.905Z,11.96
2022-08-19T11:28:45.003Z,12.31
2022-08-19T11:31:20.961Z,12.61
2022-08-19T11:33:52.309Z,12.46
2022-08-19T11:36:21.872Z,12.54
2022-08-19T11:38:50.825Z,12.61
2022-08-19T11:41:20.585Z,13.31
2022-08-19T11:43:48.610Z,14.37
2022-08-19T11:46:17.766Z,14.99
2022-08-19T11:48:45.660Z,15.08
2022-08-19T11:51:17.308Z,15.04
2022-08-19T11:53:45.644Z,14.63
2022-08-19T11:56:13.882Z,14.67
2022-08-19T11:58:44.835Z,14.56
2022-08-19T12:01:15.895Z,14.31
2022-08-19T12:03:45.208Z,14.70
2022-08-19T12:06:20.729Z,14.79
2022-08-19T12:08:48.635Z,14.52
2022-08-19T12:11:16.975Z,14.61
2022-08-19T12:13:48.885Z,15.11
2022-08-19T12:16:19.850Z,15.75
2022-08-19T12:18:48.427Z,15.90
2022-08-19T12:21:18.333Z,16.31
2022-08-19T12:23:51.670Z,16.56
2022-08-19T12:26:21.920Z,16.31
2022-08-19T12:28:49.597Z,16.55
2022-08-19T12:31:17.575Z,16.63
2022-08-19T12:33:45.298Z,16.85
2022-08-19T12:36:15.665Z,16.88
2022-08-19T12:38:45.235Z,16.97
2022-08-19T12:41:15.623Z,16.96
2022-08-19T12:43:43.658Z,16.57
2022-08-19T12:46:11.888Z,17.21
2022-08-19T12:48:47.581Z,17.19
2022-08-19T12:51:21.094Z,17.64
2022-08-19T12:53:48.836Z,18.17
2022-08-19T12:56:20.062Z,18.74
2022-08-19T12:58:53.377Z,19.46
2022-08-19T13:01:23.149Z,19.87
2022-08-19T13:03:54.946Z,20.94
2022-08-19T13:06:22.616Z,21.12
2022-08-19T13:08:50.238Z,21.58
2022-08-19T13:11:21.358Z,22.20
2022-08-19T13:13:52.215Z,22.70
2022-08-19T13:16:21.366Z,23.22
2022-08-19T13:18:52.975Z,23.67
2022-08-19T13:21:24.057Z,24.43
2022-08-19T13:23:52.665Z,25.69
2022-08-19T13:26:20.264Z,26.55
2022-08-19T13:29:06.629Z,26.77
2022-08-19T13:31:55.803Z,27.62
2022-08-19T13:34:36.164Z,28.51
2022-08-19T13:37:06.278Z,28.37
2022-08-19T13:39:35.115Z,28.53
2022-08-19T13:42:05.257Z,28.95
2022-08-19T13:44:33.423Z,28.69
2022-08-19T13:47:06.713Z,28.75
2022-08-19T13:49:37.411Z,28.93
2022-08-19T13:52:06.666Z,29.19
2022-08-19T13:54:34.452Z,29.06
2022-08-19T13:57:02.230Z,29.39
2022-08-19T13:59:29.714Z,29.83
2022-08-19T14:02:01.628Z,30.34
2022-08-19T14:04:29.324Z,30.11
2022-08-19T14:06:56.830Z,30.26
2022-08-19T14:09:24.474Z,30.48
2022-08-19T14:11:52.461Z,30.86
2022-08-19T14:14:22.574Z,30.84
2022-08-19T14:16:50.328Z,30.74
2022-08-19T14:19:17.832Z,31.34
2022-08-19T14:21:53.837Z,31.57
2022-08-19T14:24:21.463Z,31.45
2022-08-19T14:26:51.560Z,32.01
2022-08-19T14:29:22.145Z,32.22
2022-08-19T14:31:50.031Z,32.36
2022-08-19T14:34:17.568Z,32.57
2022-08-19T14:36:46.122Z,32.48
2022-08-19T14:39:16.264Z,32.51
2022-08-19T14:41:44.156Z,32.50
2022-08-19T14:44:13.565Z,32.92
2022-08-19T14:46:41.861Z,32.60
2022-08-19T14:49:17.485Z,33.14
2022-08-19T14:51:47.963Z,32.83
2022-08-19T14:54:15.573Z,33.30
2022-08-19T14:56:43.127Z,33.32
2022-08-19T14:59:10.862Z,33.35
2022-08-19T15:01:38.626Z,33.43
2022-08-19T15:04:06.339Z,33.50
2022-08-19T15:06:34.528Z,33.31
2022-08-19T15:09:04.391Z,33.42
2022-08-19T15:11:35.178Z,33.79
2022-08-19T15:14:06.423Z,33.63
2022-08-19T15:16:34.140Z,34.01
2022-08-19T15:19:02.130Z,33.79
2022-08-19T15:21:31.189Z,34.01
2022-08-19T15:23:59.785Z,34.02
2022-08-19T15:26:33.237Z,33.60
2022-08-19T15:29:04.986Z,34.20
2022-08-19T15:31:37.959Z,33.76
2022-08-19T15:34:16.122Z,34.01
2022-08-19T15:36:43.867Z,34.24
2022-08-19T15:39:11.367Z,34.25
2022-08-19T15:41:41.194Z,34.33
2022-08-19T15:44:14.779Z,34.58
2022-08-19T15:46:47.674Z,34.42
2022-08-19T15:49:18.353Z,34.08
2022-08-19T15:51:48.552Z,34.10
2022-08-19T15:54:22.482Z,34.35
2022-08-19T15:57:10.159Z,34.21
2022-08-19T16:00:00.114Z,34.43
2022-08-19T16:02:53.746Z,34.53
2022-08-19T16:05:46.802Z,34.37
2022-08-19T16:08:15.655Z,34.19
2022-08-19T16:10:43.233Z,34.62
2022-08-19T16:13:11.060Z,34.50
2022-08-19T16:15:40.114Z,34.63
2022-08-19T16:18:07.762Z,34.81
2022-08-19T16:20:35.688Z,34.83
2022-08-19T16:23:05.157Z,34.91
2022-08-19T16:25:32.939Z,35.02
2022-08-19T16:28:07.334Z,35.18
2022-08-19T16:30:38.577Z,35.39
2022-08-19T16:33:07.321Z,34.95
2022-08-19T16:35:37.036Z,35.22
2022-08-19T16:38:04.806Z,35.01
2022-08-19T16:40:34.107Z,35.19
2022-08-19T16:43:02.558Z,35.45
2022-08-19T16:45:30.542Z,35.45
2022-08-19T16:47:58.308Z,35.30
2022-08-19T16:50:48.213Z,35.70
2022-08-19T16:53:19.254Z,35.53
2022-08-19T16:55:57.523Z,35.73
2022-08-19T16:58:28.132Z,35.89
2022-08-19T17:01:05.596Z,35.81
2022-08-19T17:03:36.210Z,35.76
2022-08-19T17:06:15.965Z,36.00
2022-08-19T17:08:52.038Z,36.19
2022-08-19T17:11:21.296Z,35.97
2022-08-19T17:13:50.895Z,36.00
2022-08-19T17:16:22.228Z,36.09
2022-08-19T17:18:53.564Z,35.95
2022-08-19T17:21:29.571Z,35.83
2022-08-19T17:23:57.919Z,35.94
2022-08-19T17:26:27.124Z,35.88
2022-08-19T17:28:59.312Z,36.00
2022-08-19T17:31:30.085Z,35.87
2022-08-19T17:33:59.034Z,35.60
2022-08-19T17:36:29.401Z,35.62
2022-08-19T17:38:59.475Z,35.37
2022-08-19T17:41:28.686Z,35.32
2022-08-19T17:43:56.964Z,34.81
2022-08-19T17:46:24.659Z,35.13
2022-08-19T17:48:56.797Z,35.06
2022-08-19T17:51:40.390Z,35.19
2022-08-19T17:54:16.466Z,34.90
2022-08-19T17:56:45.355Z,34.95
2022-08-19T17:59:14.479Z,34.62
2022-08-19T18:01:53.047Z,34.89
2022-08-19T18:04:25.698Z,34.35
2022-08-19T18:06:55.632Z,34.42
2022-08-19T18:09:38.663Z,34.17
2022-08-19T18:12:14.201Z,34.04
2022-08-19T18:14:42.585Z,34.05
2022-08-19T18:17:13.106Z,33.87
2022-08-19T18:19:43.954Z,33.71
2022-08-19T18:22:27.148Z,33.87
2022-08-19T18:24:57.157Z,33.76
2022-08-19T18:27:27.162Z,34.26
2022-08-19T18:30:01.150Z,33.99
2022-08-19T18:32:34.567Z,33.93
2022-08-19T18:35:05.591Z,33.76
2022-08-19T18:37:33.150Z,34.10
2022-08-19T18:40:19.190Z,33.99
2022-08-19T18:43:05.703Z,34.32
2022-08-19T18:45:51.895Z,33.95
2022-08-19T18:48:38.246Z,34.19
2022-08-19T18:51:06.277Z,34.18
2022-08-19T18:53:36.285Z,34.42
2022-08-19T18:56:05.831Z,34.60
2022-08-19T18:58:35.068Z,34.58
2022-08-19T19:01:11.913Z,35.33
2022-08-19T19:03:45.857Z,34.47
2022-08-19T19:06:18.957Z,34.63
2022-08-19T19:08:47.540Z,34.02
2022-08-19T19:11:21.664Z,34.00
2022-08-19T19:13:53.377Z,33.70
2022-08-19T19:16:24.526Z,33.65
2022-08-19T19:18:52.943Z,33.21
2022-08-19T19:21:23.194Z,32.67
2022-08-19T19:23:52.686Z,32.20
2022-08-19T19:26:21.908Z,31.93
2022-08-19T19:28:50.412Z,31.96
2022-08-19T19:31:26.843Z,31.53
2022-08-19T19:33:56.222Z,31.90
2022-08-19T19:36:24.129Z,31.78
2022-08-19T19:38:52.579Z,31.42
2022-08-19T19:41:26.058Z,31.43
2022-08-19T19:44:23.280Z,31.69
2022-08-19T19:46:43.986Z,31.56
2022-08-19T19:49:13.384Z,31.60
2022-08-19T19:51:42.781Z,31.57
2022-08-19T19:54:16.801Z,31.51
2022-08-19T19:56:46.138Z,31.98
2022-08-19T19:59:13.668Z,31.60
2022-08-19T20:01:46.936Z,31.85
2022-08-19T20:04:17.318Z,31.61
2022-08-19T20:06:46.689Z,31.85
2022-08-19T20:09:19.916Z,31.88
2022-08-19T20:11:54.775Z,31.94
2022-08-19T20:14:28.515Z,32.00
2022-08-19T20:16:56.690Z,31.93
2022-08-19T20:19:27.441Z,31.98
2022-08-19T20:21:58.103Z,31.90
2022-08-19T20:24:29.030Z,31.82
2022-08-19T20:26:56.545Z,32.09
2022-08-19T20:29:38.381Z,32.05
2022-08-19T20:32:08.436Z,32.02
2022-08-19T20:34:37.318Z,32.35
2022-08-19T20:37:05.414Z,32.38
2022-08-19T20:39:32.970Z,32.35
2022-08-19T20:42:00.929Z,32.42
2022-08-19T20:44:28.578Z,32.46
2022-08-19T20:46:59.402Z,32.63
2022-08-19T20:49:29.518Z,32.69
2022-08-19T20:51:57.318Z,32.68
2022-08-19T20:54:25.342Z,32.76
2022-08-19T20:56:53.468Z,32.76
2022-08-19T20:59:23.019Z,32.98
2022-08-19T21:01:51.996Z,33.14
2022-08-19T21:04:21.502Z,33.04
2022-08-19T21:06:52.518Z,33.30
2022-08-19T21:09:20.500Z,33.50
2022-08-19T21:11:48.448Z,33.28
2022-08-19T21:14:16.342Z,33.66
2022-08-19T21:16:47.169Z,33.91
2022-08-19T21:19:14.751Z,33.55
2022-08-19T21:21:42.420Z,33.88
2022-08-19T21:24:09.915Z,33.64
2022-08-19T21:26:37.429Z,34.13
2022-08-19T21:29:04.963Z,34.07
2022-08-19T21:31:32.896Z,34.40
2022-08-19T21:34:00.962Z,34.06
2022-08-19T21:36:28.560Z,33.97
2022-08-19T21:38:56.050Z,34.05
2022-08-19T21:41:23.682Z,34.39
2022-08-19T21:43:51.174Z,34.35
2022-08-19T21:46:18.781Z,34.09
2022-08-19T21:48:46.297Z,34.24
2022-08-19T21:51:13.924Z,34.56
2022-08-19T21:53:41.513Z,34.37
2022-08-19T21:56:12.245Z,34.70
2022-08-19T21:58:41.379Z,34.62
2022-08-19T22:01:09.349Z,34.66
2022-08-19T22:03:38.915Z,34.80
2022-08-19T22:06:07.444Z,34.97
2022-08-19T22:08:35.583Z,35.02
2022-08-19T22:11:04.453Z,35.16
2022-08-19T22:13:40.083Z,35.50
2022-08-19T22:16:10.909Z,35.44
2022-08-19T22:18:38.606Z,35.61
2022-08-19T22:21:11.278Z,36.00
2022-08-19T22:23:41.491Z,35.96
2022-08-19T22:26:09.219Z,35.98
2022-08-19T22:28:37.828Z,35.98
2022-08-19T22:31:07.536Z,36.26
2022-08-19T22:33:36.831Z,36.30
2022-08-19T22:36:07.621Z,36.18
2022-08-19T22:38:38.434Z,36.39
2022-08-19T22:41:07.988Z,36.37
2022-08-19T22:43:37.634Z,36.44
2022-08-19T22:46:17.244Z,36.72
2022-08-19T22:48:46.715Z,36.77
2022-08-19T22:51:34.298Z,36.80
2022-08-19T22:54:02.561Z,37.25
2022-08-19T22:56:30.364Z,37.21
2022-08-19T22:58:58.318Z,37.09
2022-08-19T23:01:30.422Z,37.58
2022-08-19T23:03:59.858Z,37.03
2022-08-19T23:06:33.976Z,37.31
2022-08-19T23:09:06.847Z,37.62
2022-08-19T23:11:43.580Z,37.59
2022-08-19T23:14:12.751Z,37.69
2022-08-19T23:16:41.628Z,37.73
2022-08-19T23:19:10.346Z,38.03
2022-08-19T23:21:42.387Z,37.89
2022-08-19T23:24:10.406Z,37.67
2022-08-19T23:26:38.759Z,37.78
2022-08-19T23:29:24.724Z,38.13
2022-08-19T23:31:52.268Z,38.12
2022-08-19T23:34:19.836Z,38.19
2022-08-19T23:36:48.461Z,38.64
2022-08-19T23:39:16.102Z,38.70
2022-08-19T23:41:43.626Z,38.76
2022-08-19T23:44:14.872Z,38.85
2022-08-19T23:46:54.403Z,39.32
2022-08-19T23:49:26.134Z,39.69
2022-08-19T23:51:54.825Z,39.90
2022-08-19T23:54:32.028Z,39.93
2022-08-19T23:57:13.269Z,39.94
2022-08-19T23:59:45.455Z,40.15
